createdAt,value
2017-01-22T00:00:07.869Z,55.91
2017-01-22T00:00:48.371Z,56.01
2017-01-22T00:01:28.872Z,55.72
2017-01-22T00:02:09.357Z,55.72
2017-01-22T00:02:49.839Z,55.72
2017-01-22T00:03:30.314Z,56.01
2017-01-22T00:04:10.867Z,55.44
2017-01-22T00:04:51.335Z,55.63
2017-01-22T00:05:31.834Z,55.53
2017-01-22T00:06:12.347Z,55.44
2017-01-22T00:06:52.856Z,55.91
2017-01-22T00:07:33.328Z,55.63
2017-01-22T00:08:13.950Z,55.53
2017-01-22T00:08:54.440Z,56.1
2017-01-22T00:09:34.952Z,55.44
2017-01-22T00:10:15.471Z,56.07
2017-01-22T00:10:55.953Z,56.26
2017-01-22T00:11:36.469Z,56.45
2017-01-22T00:12:17.019Z,56.26
2017-01-22T00:12:57.483Z,56.63
2017-01-22T00:13:37.988Z,56.29
2017-01-22T00:14:18.454Z,56.38
2017-01-22T00:14:58.951Z,56.01
2017-01-22T00:15:39.460Z,55.63
2017-01-22T00:16:19.985Z,56.67
2017-01-22T00:17:00.455Z,56.73
2017-01-22T00:17:40.949Z,56.82
2017-01-22T00:18:21.444Z,57.11
2017-01-22T00:19:01.971Z,56.26
2017-01-22T00:19:42.423Z,56.45
2017-01-22T00:20:22.992Z,56.26
2017-01-22T00:21:03.420Z,56.35
2017-01-22T00:21:43.958Z,56.73
2017-01-22T00:22:24.439Z,56.82
2017-01-22T00:23:04.959Z,56.92
2017-01-22T00:23:45.457Z,56.35
2017-01-22T00:24:25.940Z,56.26
2017-01-22T00:25:06.414Z,56.63
2017-01-22T00:25:46.915Z,56.35
2017-01-22T00:26:27.420Z,56.16
2017-01-22T00:27:07.916Z,56.45
2017-01-22T00:27:48.431Z,56.73
2017-01-22T00:28:28.956Z,56.45
2017-01-22T00:29:09.450Z,56.54
2017-01-22T00:29:49.927Z,56.45
2017-01-22T00:30:30.428Z,56.35
2017-01-22T00:31:10.919Z,56.63
2017-01-22T00:31:51.413Z,56.82
2017-01-22T00:32:31.895Z,56.82
2017-01-22T00:33:12.399Z,56.54
2017-01-22T00:33:52.875Z,56.82
2017-01-22T00:34:33.488Z,56.16
2017-01-22T00:35:13.964Z,56.35
2017-01-22T00:35:54.453Z,56.45
2017-01-22T00:36:34.982Z,56.26
2017-01-22T00:37:15.478Z,55.79
2017-01-22T00:37:55.983Z,55.98
2017-01-22T00:38:36.462Z,55.6
2017-01-22T00:39:16.952Z,55.41
2017-01-22T00:39:57.494Z,55.5
2017-01-22T00:40:37.965Z,55.88
2017-01-22T00:41:18.462Z,55.69
2017-01-22T00:41:58.946Z,55.91
2017-01-22T00:42:39.446Z,55.82
2017-01-22T00:43:19.957Z,55.69
2017-01-22T00:44:00.440Z,55.88
2017-01-22T00:44:40.938Z,55.69
2017-01-22T00:45:21.452Z,55.88
2017-01-22T00:46:01.961Z,55.88
2017-01-22T00:46:42.460Z,55.41
2017-01-22T00:47:22.949Z,55.41
2017-01-22T00:48:03.458Z,55.5
2017-01-22T00:48:43.978Z,55.31
2017-01-22T00:49:24.444Z,55.5
2017-01-22T00:50:04.976Z,55.69
2017-01-22T00:50:45.446Z,55.41
2017-01-22T00:51:26.253Z,55.79
2017-01-22T00:52:06.727Z,55.69
2017-01-22T00:52:47.264Z,55.79
2017-01-22T00:53:27.737Z,55.69
2017-01-22T00:54:08.233Z,55.12
2017-01-22T00:54:48.791Z,55.82
2017-01-22T00:55:29.284Z,55.41
2017-01-22T00:56:09.764Z,55.31
2017-01-22T00:56:50.271Z,55.5
2017-01-22T00:57:30.750Z,55.31
2017-01-22T00:58:11.245Z,55.53
2017-01-22T00:58:51.775Z,54.93
2017-01-22T00:59:32.258Z,55.31
2017-01-22T01:00:12.790Z,54.93
2017-01-22T01:00:53.253Z,55.31
2017-01-22T01:01:33.761Z,54.84
2017-01-22T01:02:14.270Z,55.44
2017-01-22T01:02:54.722Z,54.93
2017-01-22T01:03:35.212Z,54.46
2017-01-22T01:04:15.716Z,55.22
2017-01-22T01:04:56.198Z,55.41
2017-01-22T01:05:36.708Z,55.69
2017-01-22T01:06:17.220Z,55.5
2017-01-22T01:06:57.716Z,55.69
2017-01-22T01:07:38.216Z,55.31
2017-01-22T01:08:18.707Z,55.5
2017-01-22T01:08:59.236Z,55.5
2017-01-22T01:09:39.785Z,55.41
2017-01-22T01:10:20.277Z,55.79
2017-01-22T01:11:00.862Z,55.69
2017-01-22T01:11:41.365Z,55.69
2017-01-22T01:12:21.861Z,55.98
2017-01-22T01:13:02.349Z,55.22
2017-01-22T01:13:42.840Z,55.41
2017-01-22T01:14:23.312Z,55.5
2017-01-22T01:15:03.825Z,55.5
2017-01-22T01:15:44.285Z,55.79
2017-01-22T01:16:24.831Z,54.93
2017-01-22T01:17:05.322Z,55.31
2017-01-22T01:17:45.799Z,55.12
2017-01-22T01:18:26.331Z,55.41
2017-01-22T01:19:06.790Z,55.41
2017-01-22T01:19:47.304Z,55.69
2017-01-22T01:20:27.813Z,55.41
2017-01-22T01:21:08.282Z,55.41
2017-01-22T01:21:48.783Z,55.88
2017-01-22T01:22:29.264Z,55.41
2017-01-22T01:23:09.768Z,55.88
2017-01-22T01:23:50.266Z,55.5
2017-01-22T01:24:30.797Z,55.41
2017-01-22T01:25:11.265Z,55.31
2017-01-22T01:25:51.779Z,55.79
2017-01-22T01:26:32.259Z,56.07
2017-01-22T01:27:12.752Z,55.69
2017-01-22T01:27:53.227Z,55.6
2017-01-22T01:28:33.755Z,55.79
2017-01-22T01:29:14.209Z,55.98
2017-01-22T01:29:54.720Z,55.69
2017-01-22T01:30:35.229Z,55.41
2017-01-22T01:31:15.692Z,55.12
2017-01-22T01:31:56.217Z,55.12
2017-01-22T01:32:36.704Z,55.03
2017-01-22T01:33:17.238Z,55.22
2017-01-22T01:33:57.795Z,55.03
2017-01-22T01:34:38.246Z,55.41
2017-01-22T01:35:18.720Z,55.5
2017-01-22T01:35:59.202Z,54.93
2017-01-22T01:36:39.638Z,55.6
2017-01-22T01:37:20.191Z,55.5
2017-01-22T01:38:00.672Z,55.79
2017-01-22T01:38:41.178Z,55.31
2017-01-22T01:39:21.660Z,55.69
2017-01-22T01:40:02.174Z,55.5
2017-01-22T01:40:42.684Z,55.69
2017-01-22T01:41:23.187Z,55.31
2017-01-22T01:42:03.702Z,55.5
2017-01-22T01:42:44.245Z,55.22
2017-01-22T01:43:24.742Z,55.12
2017-01-22T01:44:05.226Z,54.74
2017-01-22T01:44:45.721Z,54.46
2017-01-22T01:45:26.249Z,54.65
2017-01-22T01:46:06.785Z,54.46
2017-01-22T01:46:47.217Z,54.74
2017-01-22T01:47:27.705Z,54.55
2017-01-22T01:48:08.209Z,54.65
2017-01-22T01:48:48.721Z,54.74
2017-01-22T01:49:29.248Z,54.84
2017-01-22T01:50:09.760Z,54.84
2017-01-22T01:50:50.234Z,54.93
2017-01-22T01:51:30.682Z,54.93
2017-01-22T01:52:11.170Z,54.46
2017-01-22T01:52:51.688Z,54.65
2017-01-22T01:53:32.154Z,54.37
2017-01-22T01:54:12.660Z,54.65
2017-01-22T01:54:53.144Z,54.65
2017-01-22T01:55:33.651Z,54.84
2017-01-22T01:56:14.141Z,54.37
2017-01-22T01:56:54.674Z,54.53
2017-01-22T01:57:35.169Z,54.72
2017-01-22T01:58:15.661Z,54.62
2017-01-22T01:58:56.231Z,54.62
2017-01-22T01:59:36.684Z,54.62
2017-01-22T02:00:17.173Z,54.81
2017-01-22T02:00:57.658Z,54.74
2017-01-22T02:01:38.149Z,54.44
2017-01-22T02:02:18.666Z,55
2017-01-22T02:02:59.169Z,54.93
2017-01-22T02:03:39.629Z,54.74
2017-01-22T02:04:20.162Z,54.44
2017-01-22T02:05:00.616Z,54.81
2017-01-22T02:05:41.113Z,54.53
2017-01-22T02:06:21.615Z,54.44
2017-01-22T02:07:02.129Z,54.81
2017-01-22T02:07:42.589Z,54.62
2017-01-22T02:08:23.108Z,54.91
2017-01-22T02:09:03.607Z,54.62
2017-01-22T02:09:44.098Z,54.55
2017-01-22T02:10:24.572Z,54.53
2017-01-22T02:11:05.084Z,54.62
2017-01-22T02:11:45.593Z,54.53
2017-01-22T02:12:26.045Z,54.81
2017-01-22T02:13:06.552Z,55
2017-01-22T02:13:47.041Z,54.81
2017-01-22T02:14:27.517Z,54.91
2017-01-22T02:15:08.029Z,54.44
2017-01-22T02:15:48.538Z,54.72
2017-01-22T02:16:29.263Z,54.62
2017-01-22T02:17:09.760Z,54.81
2017-01-22T02:17:50.260Z,54.93
2017-01-22T02:18:30.723Z,54.72
2017-01-22T02:19:11.225Z,54.81
2017-01-22T02:19:51.722Z,54.53
2017-01-22T02:20:32.213Z,54.44
2017-01-22T02:21:12.703Z,54.72
2017-01-22T02:21:53.218Z,54.72
2017-01-22T02:22:33.708Z,54.91
2017-01-22T02:23:14.184Z,54.72
2017-01-22T02:23:54.675Z,54.72
2017-01-22T02:24:35.188Z,54.62
2017-01-22T02:25:15.666Z,55.57
2017-01-22T02:25:56.175Z,55.1
2017-01-22T02:26:36.691Z,55.29
2017-01-22T02:27:17.158Z,55.76
2017-01-22T02:27:57.683Z,55.47
2017-01-22T02:28:38.177Z,55.47
2017-01-22T02:29:18.659Z,55.38
2017-01-22T02:29:59.139Z,54.81
2017-01-22T02:30:39.653Z,55.38
2017-01-22T02:31:20.127Z,55.1
2017-01-22T02:32:00.625Z,55.19
2017-01-22T02:32:41.123Z,55.19
2017-01-22T02:33:21.597Z,55.1
2017-01-22T02:34:02.094Z,55.47
2017-01-22T02:34:42.571Z,55.66
2017-01-22T02:35:23.062Z,55.57
2017-01-22T02:36:03.610Z,55.38
2017-01-22T02:36:44.079Z,55.66
2017-01-22T02:37:24.601Z,56.13
2017-01-22T02:38:05.101Z,56.32
2017-01-22T02:38:45.566Z,56.04
2017-01-22T02:39:26.047Z,56.42
2017-01-22T02:40:06.534Z,55.94
2017-01-22T02:40:47.034Z,55.85
2017-01-22T02:41:27.525Z,55.76
2017-01-22T02:42:08.015Z,55.47
2017-01-22T02:42:48.562Z,55.19
2017-01-22T02:43:29.060Z,55.57
2017-01-22T02:44:09.559Z,55.66
2017-01-22T02:44:50.162Z,56.42
2017-01-22T02:45:30.713Z,56.61
2017-01-22T02:46:11.152Z,56.23
2017-01-22T02:46:51.713Z,56.51
2017-01-22T02:47:32.111Z,56.23
2017-01-22T02:48:12.629Z,56.32
2017-01-22T02:48:53.150Z,56.51
2017-01-22T02:49:33.595Z,56.42
2017-01-22T02:50:14.108Z,56.13
2017-01-22T02:50:54.587Z,56.42
2017-01-22T02:51:35.117Z,56.32
2017-01-22T02:52:15.598Z,56.61
2017-01-22T02:52:56.139Z,55.94
2017-01-22T02:53:36.605Z,56.13
2017-01-22T02:54:17.136Z,56.32
2017-01-22T02:54:57.628Z,56.42
2017-01-22T02:55:38.120Z,56.13
2017-01-22T02:56:18.599Z,55.85
2017-01-22T02:56:59.111Z,55.38
2017-01-22T02:57:39.585Z,55.94
2017-01-22T02:58:20.098Z,56.13
2017-01-22T02:59:00.611Z,55.94
2017-01-22T02:59:41.152Z,55.66
2017-01-22T03:00:21.613Z,55.57
2017-01-22T03:01:02.128Z,55.76
2017-01-22T03:01:42.625Z,55.47
2017-01-22T03:02:23.135Z,55.29
2017-01-22T03:03:03.644Z,55.85
2017-01-22T03:03:44.103Z,55.76
2017-01-22T03:04:24.627Z,56.04
2017-01-22T03:05:05.097Z,56.7
2017-01-22T03:05:45.588Z,56.42
2017-01-22T03:06:26.104Z,56.23
2017-01-22T03:07:06.611Z,56.13
2017-01-22T03:07:47.091Z,56.42
2017-01-22T03:08:27.658Z,56.8
2017-01-22T03:09:08.155Z,56.51
2017-01-22T03:09:48.636Z,56.23
2017-01-22T03:10:29.153Z,56.32
2017-01-22T03:11:09.639Z,56.61
2017-01-22T03:11:50.154Z,56.7
2017-01-22T03:12:30.649Z,56.61
2017-01-22T03:13:11.127Z,56.42
2017-01-22T03:13:51.620Z,56.23
2017-01-22T03:14:32.117Z,56.23
2017-01-22T03:16:20.104Z,55.76
2017-01-22T03:17:00.636Z,55.38
2017-01-22T03:17:41.149Z,56.04
2017-01-22T03:18:21.632Z,56.23
2017-01-22T03:19:02.137Z,56.42
2017-01-22T03:19:42.646Z,56.13
2017-01-22T03:20:23.117Z,56.42
2017-01-22T03:21:03.606Z,56.42
2017-01-22T03:21:44.105Z,56.51
2017-01-22T03:22:24.609Z,56.23
2017-01-22T03:23:05.111Z,55.47
2017-01-22T03:23:45.631Z,55.94
2017-01-22T03:24:26.085Z,55.66
2017-01-22T03:25:06.584Z,55.85
2017-01-22T03:25:47.115Z,55.76
2017-01-22T03:26:27.617Z,55.76
2017-01-22T03:27:08.100Z,55.57
2017-01-22T03:27:48.617Z,55.57
2017-01-22T03:28:29.120Z,55.1
2017-01-22T03:29:09.619Z,55.47
2017-01-22T03:29:50.089Z,55.38
2017-01-22T03:30:30.582Z,55
2017-01-22T03:31:11.069Z,55.47
2017-01-22T03:31:51.545Z,55.47
2017-01-22T03:32:32.017Z,55.66
2017-01-22T03:33:12.543Z,55.57
2017-01-22T03:33:53.033Z,55.76
2017-01-22T03:34:33.570Z,55.66
2017-01-22T03:35:14.047Z,55.57
2017-01-22T03:35:54.499Z,55.57
2017-01-22T03:36:34.971Z,55.57
2017-01-22T03:37:15.485Z,55.66
2017-01-22T03:37:56.052Z,55.76
2017-01-22T03:38:36.515Z,55.94
2017-01-22T03:39:17.005Z,55.85
2017-01-22T03:39:57.501Z,55.94
2017-01-22T03:40:38.172Z,56.04
2017-01-22T03:41:18.649Z,55.47
2017-01-22T03:41:59.097Z,55.94
2017-01-22T03:42:39.578Z,56.13
2017-01-22T03:43:20.067Z,55.85
2017-01-22T03:44:00.603Z,56.32
2017-01-22T03:44:41.067Z,56.48
2017-01-22T03:45:21.574Z,56.39
2017-01-22T03:46:02.039Z,56.8
2017-01-22T03:46:42.538Z,56.77
2017-01-22T03:47:23.013Z,56.96
2017-01-22T03:48:03.550Z,56.77
2017-01-22T03:48:44.018Z,56.77
2017-01-22T03:49:24.483Z,56.77
2017-01-22T03:50:04.978Z,56.67
2017-01-22T03:50:45.461Z,56.42
2017-01-22T03:51:25.933Z,56.23
2017-01-22T03:52:06.465Z,56.61
2017-01-22T03:52:46.977Z,56.13
2017-01-22T03:53:27.426Z,55.94
2017-01-22T03:54:07.975Z,55.66
2017-01-22T03:54:48.395Z,55.19
2017-01-22T03:55:28.893Z,55.38
2017-01-22T03:56:09.438Z,55
2017-01-22T03:56:49.907Z,55.19
2017-01-22T03:57:30.411Z,55.1
2017-01-22T03:58:10.888Z,55.19
2017-01-22T03:58:51.495Z,54.53
2017-01-22T03:59:32.001Z,54.81
2017-01-22T04:00:12.662Z,54.62
2017-01-22T04:00:53.029Z,54.81
2017-01-22T04:01:33.445Z,54.72
2017-01-22T04:02:14.077Z,54.44
2017-01-22T04:02:56.821Z,54.25
2017-01-22T04:03:37.458Z,54.72
2017-01-22T04:04:17.935Z,54.72
2017-01-22T04:04:58.607Z,54.34
2017-01-22T04:05:39.043Z,54.44
2017-01-22T04:06:19.541Z,54.62
2017-01-22T04:07:00.418Z,54.81
2017-01-22T04:07:41.778Z,54.81
2017-01-22T04:08:22.732Z,54.62
2017-01-22T04:09:04.005Z,54.62
2017-01-22T04:11:25.239Z,55.19
2017-01-22T04:12:05.735Z,55.1
2017-01-22T04:12:46.214Z,55.47
2017-01-22T04:13:26.737Z,55.94
2017-01-22T04:14:07.245Z,55.94
2017-01-22T04:14:47.714Z,55.57
2017-01-22T04:15:28.200Z,55.29
2017-01-22T04:16:08.716Z,55.66
2017-01-22T04:16:49.195Z,55.1
2017-01-22T04:17:29.693Z,55.57
2017-01-22T04:18:10.145Z,55.1
2017-01-22T04:18:50.665Z,55.1
2017-01-22T04:19:31.141Z,55.29
2017-01-22T04:20:11.652Z,55.57
2017-01-22T04:20:52.098Z,55.38
2017-01-22T04:21:32.627Z,55
2017-01-22T04:22:13.136Z,55.47
2017-01-22T04:22:53.601Z,55.38
2017-01-22T04:23:34.102Z,55.38
2017-01-22T04:24:14.603Z,55.47
2017-01-22T04:24:55.099Z,55.38
2017-01-22T04:25:35.580Z,55.57
2017-01-22T04:26:16.105Z,55.16
2017-01-22T04:26:56.586Z,55.73
2017-01-22T04:27:37.073Z,55.54
2017-01-22T04:28:17.566Z,55.63
2017-01-22T04:28:58.083Z,55.73
2017-01-22T04:29:38.561Z,55.63
2017-01-22T04:30:19.047Z,55.82
2017-01-22T04:30:59.544Z,55.44
2017-01-22T04:31:40.090Z,55.44
2017-01-22T04:32:20.504Z,55.57
2017-01-22T04:33:01.005Z,55.63
2017-01-22T04:33:41.517Z,55.44
2017-01-22T04:34:22.017Z,55.82
2017-01-22T04:35:02.522Z,55.26
2017-01-22T04:35:42.982Z,55.44
2017-01-22T04:36:23.498Z,55.07
2017-01-22T04:37:03.991Z,55.73
2017-01-22T04:37:44.533Z,55.35
2017-01-22T04:38:25.017Z,55.44
2017-01-22T04:39:05.533Z,55.82
2017-01-22T04:39:46.010Z,55.54
2017-01-22T04:40:26.491Z,55.63
2017-01-22T04:41:07.027Z,55.82
2017-01-22T04:41:47.515Z,55.82
2017-01-22T04:42:28.027Z,55.73
2017-01-22T04:43:08.528Z,55.63
2017-01-22T04:43:49.037Z,56.01
2017-01-22T04:44:29.538Z,55.54
2017-01-22T04:45:10.014Z,55.73
2017-01-22T04:45:50.533Z,55.54
2017-01-22T04:46:31.008Z,55.44
2017-01-22T04:47:11.487Z,55.63
2017-01-22T04:47:52.008Z,55.54
2017-01-22T04:48:32.451Z,55.35
2017-01-22T04:49:12.945Z,55.26
2017-01-22T04:49:53.441Z,55.26
2017-01-22T04:50:33.953Z,55.44
2017-01-22T04:51:14.457Z,55.73
2017-01-22T04:51:54.966Z,55.63
2017-01-22T04:52:35.439Z,55.44
2017-01-22T04:53:15.942Z,56.39
2017-01-22T04:53:56.440Z,56.3
2017-01-22T04:54:36.940Z,56.48
2017-01-22T04:55:17.428Z,56.2
2017-01-22T04:55:57.937Z,56.51
2017-01-22T04:56:38.437Z,56.48
2017-01-22T04:57:18.941Z,56.48
2017-01-22T04:57:59.410Z,56.51
2017-01-22T04:58:39.879Z,55.57
2017-01-22T04:59:20.366Z,55.47
2017-01-22T05:00:00.878Z,55.47
2017-01-22T05:00:41.357Z,55.47
2017-01-22T05:01:21.824Z,55.1
2017-01-22T05:02:02.303Z,55.66
2017-01-22T05:02:42.804Z,55.85
2017-01-22T05:03:23.294Z,55.47
2017-01-22T05:04:03.787Z,55.47
2017-01-22T05:04:44.281Z,55.19
2017-01-22T05:05:24.775Z,55.1
2017-01-22T05:06:05.314Z,55.47
2017-01-22T05:06:45.798Z,55.47
2017-01-22T05:07:26.299Z,55.47
2017-01-22T05:08:06.772Z,54.72
2017-01-22T05:08:47.264Z,55.38
2017-01-22T05:09:27.788Z,55.38
2017-01-22T05:10:08.274Z,55.29
2017-01-22T05:10:48.706Z,55.29
2017-01-22T05:11:29.255Z,54.91
2017-01-22T05:12:09.723Z,54.81
2017-01-22T05:12:50.216Z,54.44
2017-01-22T05:13:30.690Z,54.53
2017-01-22T05:14:11.201Z,55
2017-01-22T05:14:51.676Z,54.44
2017-01-22T05:15:32.195Z,54.62
2017-01-22T05:16:12.667Z,54.62
2017-01-22T05:16:53.198Z,54.44
2017-01-22T05:17:33.639Z,54.91
2017-01-22T05:18:14.146Z,54.72
2017-01-22T05:18:54.622Z,54.72
2017-01-22T05:19:35.124Z,54.81
2017-01-22T05:20:15.604Z,55
2017-01-22T05:20:56.112Z,54.81
2017-01-22T05:21:36.591Z,54.72
2017-01-22T05:22:17.093Z,54.72
2017-01-22T05:22:57.584Z,54.81
2017-01-22T05:23:38.101Z,54.81
2017-01-22T05:24:18.637Z,54.91
2017-01-22T05:24:59.079Z,54.81
2017-01-22T05:25:39.559Z,54.72
2017-01-22T05:26:20.038Z,54.91
2017-01-22T05:27:00.486Z,54.62
2017-01-22T05:27:40.982Z,54.91
2017-01-22T05:28:21.488Z,54.53
2017-01-22T05:29:01.995Z,54.53
2017-01-22T05:29:42.511Z,54.34
2017-01-22T05:30:23.004Z,54.44
2017-01-22T05:31:03.494Z,54.62
2017-01-22T05:31:43.987Z,54.53
2017-01-22T05:32:24.476Z,54.44
2017-01-22T05:33:04.973Z,54.72
2017-01-22T05:33:45.457Z,54.81
2017-01-22T05:34:25.927Z,54.72
2017-01-22T05:35:06.440Z,54.72
2017-01-22T05:35:46.954Z,54.72
2017-01-22T05:36:27.482Z,54.81
2017-01-22T05:37:07.924Z,54.72
2017-01-22T05:37:48.391Z,54.81
2017-01-22T05:38:28.898Z,54.91
2017-01-22T05:39:09.407Z,54.62
2017-01-22T05:39:49.899Z,55
2017-01-22T05:40:30.372Z,54.72
2017-01-22T05:41:10.843Z,54.72
2017-01-22T05:41:51.375Z,54.81
2017-01-22T05:42:31.822Z,54.91
2017-01-22T05:43:12.316Z,54.72
2017-01-22T05:43:52.830Z,54.81
2017-01-22T05:44:33.390Z,54.72
2017-01-22T05:45:13.817Z,54.81
2017-01-22T05:45:54.297Z,54.25
2017-01-22T05:46:34.799Z,54.34
2017-01-22T05:47:15.292Z,54.44
2017-01-22T05:47:55.767Z,54.72
2017-01-22T05:48:36.262Z,54.53
2017-01-22T05:49:16.759Z,54.25
2017-01-22T05:49:57.276Z,53.96
2017-01-22T05:50:37.764Z,54.53
2017-01-22T05:51:18.262Z,54.34
2017-01-22T05:51:58.780Z,54.44
2017-01-22T05:52:39.222Z,54.91
2017-01-22T05:53:19.743Z,54.81
2017-01-22T05:54:00.218Z,54.62
2017-01-22T05:54:40.716Z,54.91
2017-01-22T05:55:21.236Z,54.72
2017-01-22T05:56:01.714Z,54.53
2017-01-22T05:56:42.196Z,54.62
2017-01-22T05:57:22.688Z,54.72
2017-01-22T05:58:03.203Z,54.72
2017-01-22T05:58:43.717Z,54.72
2017-01-22T05:59:24.220Z,55
2017-01-22T06:00:04.792Z,54.44
2017-01-22T06:00:45.247Z,54.62
2017-01-22T06:01:25.729Z,54.81
2017-01-22T06:02:06.246Z,54.53
2017-01-22T06:02:46.724Z,54.91
2017-01-22T06:03:27.229Z,55.35
2017-01-22T06:04:07.719Z,55.47
2017-01-22T06:04:48.203Z,54.53
2017-01-22T06:05:28.693Z,54.62
2017-01-22T06:06:09.276Z,54.62
2017-01-22T06:06:49.733Z,54.81
2017-01-22T06:07:30.223Z,54.81
2017-01-22T06:08:10.745Z,54.81
2017-01-22T06:08:51.191Z,54.81
2017-01-22T06:09:31.728Z,55
2017-01-22T06:10:12.245Z,54.62
2017-01-22T06:10:52.631Z,54.79
2017-01-22T06:11:33.116Z,55.16
2017-01-22T06:12:13.621Z,55.16
2017-01-22T06:12:54.101Z,55.26
2017-01-22T06:13:34.579Z,54.97
2017-01-22T06:14:15.081Z,55.07
2017-01-22T06:14:55.577Z,55.07
2017-01-22T06:15:36.084Z,55.38
2017-01-22T06:16:16.528Z,55.38
2017-01-22T06:16:57.036Z,54.62
2017-01-22T06:17:37.534Z,54.6
2017-01-22T06:18:18.049Z,55.19
2017-01-22T06:18:58.546Z,54.53
2017-01-22T06:19:39.030Z,54.62
2017-01-22T06:20:19.523Z,54.44
2017-01-22T06:21:00.001Z,54.44
2017-01-22T06:21:40.498Z,54.41
2017-01-22T06:22:21.002Z,54.5
2017-01-22T06:23:01.465Z,54.41
2017-01-22T06:23:41.957Z,55
2017-01-22T06:24:22.422Z,54.79
2017-01-22T06:25:02.913Z,54.72
2017-01-22T06:25:43.406Z,54.72
2017-01-22T06:26:23.945Z,54.5
2017-01-22T06:27:04.409Z,54.44
2017-01-22T06:27:45.009Z,54.62
2017-01-22T06:28:25.514Z,54.32
2017-01-22T06:29:06.015Z,54.44
2017-01-22T06:29:46.460Z,54.6
2017-01-22T06:30:26.916Z,54.6
2017-01-22T06:31:07.429Z,54.79
2017-01-22T06:31:47.891Z,54.81
2017-01-22T06:32:28.357Z,54.62
2017-01-22T06:33:08.841Z,54.72
2017-01-22T06:33:49.351Z,54.62
2017-01-22T06:34:29.869Z,54.62
2017-01-22T06:35:10.361Z,54.91
2017-01-22T06:35:50.814Z,54.81
2017-01-22T06:36:31.308Z,54.53
2017-01-22T06:37:11.810Z,53.96
2017-01-22T06:37:52.272Z,53.87
2017-01-22T06:38:32.766Z,53.96
2017-01-22T06:39:13.236Z,54.53
2017-01-22T06:39:53.724Z,54.53
2017-01-22T06:40:34.272Z,54.91
2017-01-22T06:41:14.796Z,54.81
2017-01-22T06:41:55.294Z,54.97
2017-01-22T06:42:35.767Z,54.72
2017-01-22T06:43:16.227Z,54.91
2017-01-22T06:43:56.696Z,54.91
2017-01-22T06:44:37.216Z,54.81
2017-01-22T06:45:17.688Z,54.34
2017-01-22T06:45:58.178Z,54.62
2017-01-22T06:46:38.631Z,53.87
2017-01-22T06:47:19.153Z,53.49
2017-01-22T06:47:59.600Z,53.68
2017-01-22T06:48:40.110Z,53.84
2017-01-22T06:49:20.556Z,54.53
2017-01-22T06:50:01.073Z,54.15
2017-01-22T06:50:41.535Z,54.79
2017-01-22T06:51:22.043Z,54.79
2017-01-22T06:52:02.529Z,54.81
2017-01-22T06:52:43.000Z,54.72
2017-01-22T06:53:23.530Z,54.72
2017-01-22T06:54:04.010Z,54.91
2017-01-22T06:54:44.477Z,54.72
2017-01-22T06:55:24.964Z,54.44
2017-01-22T06:56:05.429Z,54.62
2017-01-22T06:56:45.947Z,54.72
2017-01-22T06:57:26.521Z,54.62
2017-01-22T06:58:07.026Z,54.69
2017-01-22T06:58:47.509Z,54.72
2017-01-22T06:59:27.945Z,54.72
2017-01-22T07:00:08.430Z,54.72
2017-01-22T07:00:48.896Z,54.72
2017-01-22T07:01:29.328Z,54.88
2017-01-22T07:02:09.897Z,54.79
2017-01-22T07:02:50.365Z,54.5
2017-01-22T07:03:30.879Z,54.72
2017-01-22T07:04:11.318Z,54.62
2017-01-22T07:04:51.809Z,54.79
2017-01-22T07:05:32.293Z,54.72
2017-01-22T07:06:12.823Z,54.72
2017-01-22T07:06:53.265Z,54.34
2017-01-22T07:07:33.753Z,54.62
2017-01-22T07:08:14.258Z,54.81
2017-01-22T07:08:54.768Z,54.72
2017-01-22T07:09:35.257Z,54.81
2017-01-22T07:10:15.723Z,54.81
2017-01-22T07:10:56.205Z,54.79
2017-01-22T07:11:36.681Z,54.72
2017-01-22T07:12:17.158Z,54.72
2017-01-22T07:12:57.655Z,54.72
2017-01-22T07:13:38.136Z,54.44
2017-01-22T07:14:18.664Z,54.69
2017-01-22T07:14:59.127Z,54.69
2017-01-22T07:15:39.659Z,54.6
2017-01-22T07:16:20.115Z,54.34
2017-01-22T07:17:00.683Z,54.81
2017-01-22T07:17:41.199Z,54.62
2017-01-22T07:18:21.740Z,54.69
2017-01-22T07:19:02.200Z,54.72
2017-01-22T07:19:42.741Z,54.62
2017-01-22T07:20:23.196Z,54.15
2017-01-22T07:21:03.668Z,54.25
2017-01-22T07:21:44.190Z,54.03
2017-01-22T07:22:24.663Z,54.53
2017-01-22T07:23:05.175Z,54.53
2017-01-22T07:23:45.641Z,54.44
2017-01-22T07:24:26.122Z,54.44
2017-01-22T07:25:06.630Z,54.6
2017-01-22T07:25:47.132Z,54.15
2017-01-22T07:26:27.608Z,54.15
2017-01-22T07:27:08.093Z,54.25
2017-01-22T07:27:48.625Z,53.77
2017-01-22T07:28:29.080Z,53.58
2017-01-22T07:29:09.553Z,53.58
2017-01-22T07:29:50.058Z,53.96
2017-01-22T07:30:30.550Z,53.49
2017-01-22T07:31:11.062Z,53.49
2017-01-22T07:31:51.549Z,53.68
2017-01-22T07:32:32.014Z,53.77
2017-01-22T07:33:12.519Z,53.39
2017-01-22T07:33:52.967Z,53.58
2017-01-22T07:34:33.484Z,53.58
2017-01-22T07:35:13.958Z,53.68
2017-01-22T07:35:54.428Z,53.68
2017-01-22T07:36:34.937Z,53.68
2017-01-22T07:37:15.424Z,53.77
2017-01-22T07:37:55.919Z,53.77
2017-01-22T07:38:36.383Z,54.32
2017-01-22T07:39:16.898Z,54.13
2017-01-22T07:39:57.362Z,53.96
2017-01-22T07:40:37.857Z,53.77
2017-01-22T07:41:18.297Z,53.68
2017-01-22T07:41:58.822Z,53.87
2017-01-22T07:42:39.266Z,53.49
2017-01-22T07:43:19.775Z,53.87
2017-01-22T07:44:00.293Z,53.96
2017-01-22T07:44:40.749Z,53.58
2017-01-22T07:45:21.213Z,53.58
2017-01-22T07:46:01.744Z,53.49
2017-01-22T07:46:42.215Z,53.39
2017-01-22T07:47:22.681Z,53.3
2017-01-22T07:48:03.178Z,53.58
2017-01-22T07:48:43.685Z,53.39
2017-01-22T07:49:24.149Z,53.58
2017-01-22T07:50:04.609Z,53.39
2017-01-22T07:50:45.107Z,53.58
2017-01-22T07:51:25.595Z,53.39
2017-01-22T07:52:06.118Z,53.3
2017-01-22T07:52:46.593Z,53.49
2017-01-22T07:53:27.079Z,53.49
2017-01-22T07:54:07.560Z,52.92
2017-01-22T07:54:48.037Z,53.49
2017-01-22T07:55:28.505Z,53.2
2017-01-22T07:56:09.002Z,52.64
2017-01-22T07:56:49.512Z,52.83
2017-01-22T07:57:29.998Z,52.64
2017-01-22T07:58:10.500Z,53.02
2017-01-22T07:58:50.943Z,52.92
2017-01-22T07:59:31.460Z,52.55
2017-01-22T08:00:11.926Z,53.2
2017-01-22T08:00:52.420Z,53.68
2017-01-22T08:01:32.975Z,53.11
2017-01-22T08:02:13.493Z,53.49
2017-01-22T08:02:54.021Z,53.39
2017-01-22T08:03:34.510Z,53.2
2017-01-22T08:04:15.010Z,53.39
2017-01-22T08:04:55.513Z,53.3
2017-01-22T08:05:36.015Z,53.3
2017-01-22T08:06:16.496Z,53.49
2017-01-22T08:06:57.024Z,53.49
2017-01-22T08:07:37.494Z,53.49
2017-01-22T08:08:17.999Z,53.58
2017-01-22T08:08:58.527Z,53.02
2017-01-22T08:09:39.027Z,53.11
2017-01-22T08:10:19.534Z,53.68
2017-01-22T08:11:00.071Z,53.58
2017-01-22T08:11:40.561Z,53.39
2017-01-22T08:12:21.077Z,53.39
2017-01-22T08:13:01.615Z,53.39
2017-01-22T08:13:42.101Z,53.68
2017-01-22T08:14:22.607Z,53.02
2017-01-22T08:15:03.115Z,53.3
2017-01-22T08:15:43.623Z,53.58
2017-01-22T08:16:24.142Z,53.02
2017-01-22T08:17:04.674Z,53.58
2017-01-22T08:17:45.220Z,53.02
2017-01-22T08:18:25.986Z,53.68
2017-01-22T08:19:06.471Z,53.58
2017-01-22T08:19:46.929Z,53.3
2017-01-22T08:20:27.435Z,53.2
2017-01-22T08:21:07.949Z,53.68
2017-01-22T08:21:48.451Z,53.56
2017-01-22T08:22:28.976Z,53.65
2017-01-22T08:23:09.493Z,53.84
2017-01-22T08:23:50.014Z,54.03
2017-01-22T08:24:30.502Z,53.94
2017-01-22T08:25:11.022Z,53.84
2017-01-22T08:25:51.633Z,54.41
2017-01-22T08:26:32.136Z,54.5
2017-01-22T08:27:12.581Z,54.15
2017-01-22T08:27:53.058Z,53.77
2017-01-22T08:28:33.625Z,53.56
2017-01-22T08:29:14.030Z,53.65
2017-01-22T08:29:54.531Z,53.87
2017-01-22T08:30:35.002Z,53.87
2017-01-22T08:31:15.468Z,53.94
2017-01-22T08:31:56.016Z,53.96
2017-01-22T08:32:36.465Z,54.13
2017-01-22T08:33:16.970Z,54.13
2017-01-22T08:33:57.460Z,54.6
2017-01-22T08:34:37.988Z,54.6
2017-01-22T08:35:18.439Z,54.69
2017-01-22T08:35:58.908Z,54.81
2017-01-22T08:36:39.402Z,54.62
2017-01-22T08:37:19.890Z,54.03
2017-01-22T08:38:00.386Z,54.5
2017-01-22T08:38:40.851Z,54.22
2017-01-22T08:39:21.372Z,54.69
2017-01-22T08:40:01.835Z,54.79
2017-01-22T08:40:42.389Z,54.79
2017-01-22T08:41:22.797Z,54.79
2017-01-22T08:42:03.315Z,54.81
2017-01-22T08:42:43.822Z,54.34
2017-01-22T08:43:24.291Z,54.13
2017-01-22T08:44:04.773Z,54.06
2017-01-22T08:44:45.235Z,54.06
2017-01-22T08:45:25.711Z,54.15
2017-01-22T08:46:06.218Z,54.06